createdAt,value
2019-02-09T00:01:02.326Z,2.63
2019-02-09T00:03:50.472Z,2.75
2019-02-09T00:06:39.262Z,2.72
2019-02-09T00:09:27.982Z,2.82
2019-02-09T00:12:17.158Z,2.80
2019-02-09T00:15:27.223Z,2.89
2019-02-09T00:18:17.224Z,2.91
2019-02-09T00:21:06.868Z,2.87
2019-02-09T00:23:55.938Z,2.96
2019-02-09T00:26:44.790Z,2.89
2019-02-09T00:29:33.263Z,2.80
2019-02-09T00:32:23.524Z,2.95
2019-02-09T00:35:12.513Z,2.80
2019-02-09T00:38:01.660Z,2.70
2019-02-09T00:40:50.306Z,2.79
2019-02-09T00:43:38.822Z,2.89
2019-02-09T00:46:27.490Z,2.92
2019-02-09T00:49:16.780Z,2.93
2019-02-09T00:52:05.328Z,2.87
2019-02-09T00:54:54.478Z,2.94
2019-02-09T00:57:43.148Z,2.98
2019-02-09T01:00:32.229Z,2.85
2019-02-09T01:03:20.668Z,2.84
2019-02-09T01:06:09.582Z,2.87
2019-02-09T01:08:58.362Z,2.84
2019-02-09T01:11:46.480Z,2.82
2019-02-09T01:14:36.406Z,2.77
2019-02-09T01:17:25.258Z,2.84
2019-02-09T01:20:17.824Z,2.86
2019-02-09T01:23:06.292Z,2.89
2019-02-09T01:25:55.099Z,2.84
2019-02-09T01:28:43.714Z,2.68
2019-02-09T01:31:31.886Z,2.81
2019-02-09T01:34:20.701Z,2.86
2019-02-09T01:37:09.981Z,2.85
2019-02-09T01:39:59.208Z,2.80
2019-02-09T01:42:48.130Z,2.77
2019-02-09T01:45:36.862Z,2.74
2019-02-09T01:48:25.804Z,2.71
2019-02-09T01:51:14.566Z,2.58
2019-02-09T01:54:04.102Z,2.62
2019-02-09T01:56:52.935Z,2.57
2019-02-09T01:59:41.823Z,2.57
2019-02-09T02:02:30.932Z,2.56
2019-02-09T02:05:21.374Z,2.48
2019-02-09T02:08:11.375Z,2.46
2019-02-09T02:11:00.498Z,2.49
2019-02-09T02:13:49.152Z,2.41
2019-02-09T02:16:38.010Z,2.40
2019-02-09T02:19:26.880Z,2.32
2019-02-09T02:22:15.355Z,2.32
2019-02-09T02:25:05.716Z,2.41
2019-02-09T02:27:54.708Z,2.38
2019-02-09T02:30:43.916Z,2.30
2019-02-09T02:33:32.559Z,2.39
2019-02-09T02:36:21.714Z,2.38
2019-02-09T02:39:11.160Z,2.28
2019-02-09T02:42:00.143Z,2.33
2019-02-09T02:44:48.500Z,2.34
2019-02-09T02:47:37.571Z,2.33
2019-02-09T02:50:26.447Z,2.36
2019-02-09T02:53:16.557Z,2.36
2019-02-09T02:56:05.641Z,2.36
2019-02-09T02:58:54.494Z,2.34
2019-02-09T03:01:43.473Z,2.43
2019-02-09T03:04:32.109Z,2.54
2019-02-09T03:07:20.473Z,2.63
2019-02-09T03:10:09.808Z,2.71
2019-02-09T03:12:58.877Z,2.67
2019-02-09T03:15:47.506Z,2.69
2019-02-09T03:18:36.319Z,2.63
2019-02-09T03:21:25.526Z,2.63
2019-02-09T03:24:13.930Z,2.47
2019-02-09T03:27:03.384Z,2.55
2019-02-09T03:29:52.289Z,2.64
2019-02-09T03:32:41.201Z,2.69
2019-02-09T03:35:29.812Z,2.75
2019-02-09T03:38:18.520Z,2.82
2019-02-09T03:41:06.924Z,2.87
2019-02-09T03:43:55.145Z,2.93
2019-02-09T03:46:44.328Z,2.97
2019-02-09T03:49:32.901Z,3.03
2019-02-09T03:52:22.238Z,3.10
2019-02-09T03:55:10.796Z,3.16
2019-02-09T03:57:59.114Z,3.18
2019-02-09T04:00:55.297Z,3.24
2019-02-09T04:03:37.936Z,3.28
2019-02-09T04:06:26.925Z,3.29
2019-02-09T04:09:16.260Z,3.33
2019-02-09T04:12:05.519Z,3.36
2019-02-09T04:14:53.882Z,3.38
2019-02-09T04:17:42.353Z,3.40
2019-02-09T04:20:31.171Z,3.39
2019-02-09T04:23:19.982Z,3.43
2019-02-09T04:26:08.545Z,3.44
2019-02-09T04:28:57.169Z,3.50
2019-02-09T04:31:45.311Z,3.52
2019-02-09T04:34:33.905Z,3.54
2019-02-09T04:37:22.725Z,3.58
2019-02-09T04:40:14.020Z,3.62
2019-02-09T04:43:03.984Z,3.63
2019-02-09T04:45:52.692Z,3.65
2019-02-09T04:48:40.986Z,3.71
2019-02-09T04:51:29.927Z,3.73
2019-02-09T04:54:18.872Z,3.77
2019-02-09T04:57:07.334Z,3.78
2019-02-09T04:59:56.266Z,3.83
2019-02-09T05:02:45.067Z,3.85
2019-02-09T05:05:33.160Z,3.85
2019-02-09T05:08:21.899Z,3.87
2019-02-09T05:11:10.167Z,3.84
2019-02-09T05:13:59.221Z,3.85
2019-02-09T05:16:48.403Z,3.86
2019-02-09T05:19:36.873Z,3.83
2019-02-09T05:22:25.845Z,3.85
2019-02-09T05:25:15.587Z,3.92
2019-02-09T05:28:04.307Z,3.81
2019-02-09T05:30:52.772Z,3.91
2019-02-09T05:33:41.482Z,3.98
2019-02-09T05:36:30.035Z,3.98
2019-02-09T05:39:18.527Z,3.99
2019-02-09T05:42:07.370Z,4.04
2019-02-09T05:44:55.655Z,4.05
2019-02-09T05:47:44.654Z,4.05
2019-02-09T05:50:32.945Z,4.05
2019-02-09T05:53:21.514Z,4.07
2019-02-09T05:56:10.245Z,4.14
2019-02-09T05:58:59.300Z,4.13
2019-02-09T06:01:47.970Z,4.13
2019-02-09T06:04:36.451Z,4.12
2019-02-09T06:07:25.168Z,4.11
2019-02-09T06:10:16.699Z,4.17
2019-02-09T06:13:06.177Z,4.31
2019-02-09T06:15:54.858Z,4.43
2019-02-09T06:18:43.737Z,4.75
2019-02-09T06:21:32.779Z,4.94
2019-02-09T06:24:21.231Z,5.23
2019-02-09T06:27:09.759Z,5.37
2019-02-09T06:29:58.325Z,5.41
2019-02-09T06:32:47.003Z,5.52
2019-02-09T06:35:35.827Z,5.61
2019-02-09T06:38:24.854Z,5.69
2019-02-09T06:41:13.786Z,5.83
2019-02-09T06:44:02.662Z,5.72
2019-02-09T06:46:51.576Z,5.81
2019-02-09T06:49:40.873Z,5.86
2019-02-09T06:52:31.389Z,5.92
2019-02-09T06:55:20.590Z,5.95
2019-02-09T06:58:09.391Z,6.07
2019-02-09T07:00:57.991Z,6.09
2019-02-09T07:03:46.843Z,6.26
2019-02-09T07:06:35.292Z,6.35
2019-02-09T07:09:23.858Z,6.43
2019-02-09T07:12:12.827Z,6.57
2019-02-09T07:15:01.850Z,6.64
2019-02-09T07:17:50.151Z,6.66
2019-02-09T07:20:39.294Z,6.58
2019-02-09T07:23:30.780Z,6.60
2019-02-09T07:26:19.706Z,6.58
2019-02-09T07:29:08.663Z,6.61
2019-02-09T07:31:57.879Z,6.59
2019-02-09T07:34:46.365Z,6.62
2019-02-09T07:37:35.160Z,6.67
2019-02-09T07:40:24.246Z,6.71
2019-02-09T07:43:12.715Z,6.74
2019-02-09T07:46:01.400Z,6.75
2019-02-09T07:48:50.635Z,6.73
2019-02-09T07:51:39.288Z,6.75
2019-02-09T07:54:28.056Z,6.77
2019-02-09T07:57:16.245Z,6.78
2019-02-09T08:00:08.853Z,6.75
2019-02-09T08:02:57.702Z,6.72
2019-02-09T08:05:46.044Z,6.66
2019-02-09T08:08:34.836Z,6.64
2019-02-09T08:11:24.071Z,6.63
2019-02-09T08:14:12.955Z,6.71
2019-02-09T08:17:01.978Z,6.79
2019-02-09T08:19:50.551Z,6.91
2019-02-09T08:22:39.655Z,7.01
2019-02-09T08:25:30.339Z,7.15
2019-02-09T08:28:19.521Z,7.27
2019-02-09T08:31:08.640Z,7.31
2019-02-09T08:33:57.240Z,7.38
2019-02-09T08:36:45.837Z,7.29
2019-02-09T08:39:34.445Z,7.31
2019-02-09T08:42:24.250Z,7.27
2019-02-09T08:45:17.265Z,7.25
2019-02-09T08:48:06.153Z,7.22
2019-02-09T08:51:00.201Z,7.19
2019-02-09T08:53:49.268Z,7.21
2019-02-09T08:56:38.170Z,7.20
2019-02-09T08:59:26.331Z,7.18
2019-02-09T09:02:20.458Z,7.23
2019-02-09T09:05:09.702Z,7.18
2019-02-09T09:07:56.761Z,7.18
2019-02-09T09:10:45.650Z,7.18
2019-02-09T09:13:34.828Z,7.20
2019-02-09T09:16:23.094Z,7.23
2019-02-09T09:19:12.176Z,7.34
2019-02-09T09:22:01.372Z,7.39
2019-02-09T09:24:50.688Z,7.45
2019-02-09T09:27:39.444Z,7.53
2019-02-09T09:30:28.442Z,7.60
2019-02-09T09:33:17.144Z,7.65
2019-02-09T09:36:05.910Z,7.71
2019-02-09T09:38:54.905Z,7.70
2019-02-09T09:41:43.909Z,7.70
2019-02-09T09:44:32.668Z,7.70
2019-02-09T09:47:21.646Z,7.70
2019-02-09T09:50:12.885Z,7.69
2019-02-09T09:53:01.333Z,7.76
2019-02-09T09:55:50.137Z,7.90
2019-02-09T09:58:39.128Z,7.97
2019-02-09T10:01:27.472Z,8.01
2019-02-09T10:04:16.600Z,8.09
2019-02-09T10:07:04.789Z,8.16
2019-02-09T10:09:54.001Z,8.20
2019-02-09T10:12:43.545Z,8.30
2019-02-09T10:15:31.754Z,8.42
2019-02-09T10:18:19.900Z,8.53
2019-02-09T10:21:08.556Z,8.62
2019-02-09T10:23:57.393Z,8.71
2019-02-09T10:26:46.396Z,8.79
2019-02-09T10:29:34.827Z,8.82
2019-02-09T10:32:23.953Z,8.94
2019-02-09T10:35:12.784Z,9.00
2019-02-09T10:38:01.316Z,9.05
2019-02-09T10:40:50.266Z,9.07
2019-02-09T10:43:40.883Z,9.13
2019-02-09T10:46:29.747Z,9.22
2019-02-09T10:49:18.650Z,9.40
2019-02-09T10:52:07.593Z,9.46
2019-02-09T10:54:56.015Z,9.53
2019-02-09T10:57:45.093Z,9.75
2019-02-09T11:00:43.395Z,9.98
2019-02-09T11:03:32.367Z,10.07
2019-02-09T11:06:21.214Z,10.00
2019-02-09T11:09:17.361Z,10.14
2019-02-09T11:12:06.799Z,10.30
2019-02-09T11:14:55.548Z,10.53
2019-02-09T11:17:45.033Z,10.63
2019-02-09T11:20:33.610Z,10.72
2019-02-09T11:23:27.420Z,10.72
2019-02-09T11:26:16.603Z,10.68
2019-02-09T11:29:05.706Z,10.64
2019-02-09T11:31:55.461Z,11.01
2019-02-09T11:34:44.689Z,10.72
2019-02-09T11:37:33.367Z,10.41
2019-02-09T11:40:22.243Z,10.53
2019-02-09T11:43:11.095Z,10.17
2019-02-09T11:46:00.198Z,10.42
2019-02-09T11:48:50.001Z,10.76
2019-02-09T11:51:38.486Z,11.52
2019-02-09T11:54:27.184Z,12.00
2019-02-09T11:57:15.862Z,12.34
2019-02-09T12:00:05.547Z,12.00
2019-02-09T12:03:02.137Z,12.44
2019-02-09T12:05:45.329Z,12.53
2019-02-09T12:08:35.706Z,12.51
2019-02-09T12:11:24.463Z,12.75
2019-02-09T12:14:13.242Z,12.71
2019-02-09T12:17:01.927Z,12.65
2019-02-09T12:19:51.010Z,12.82
2019-02-09T12:22:40.397Z,12.77
2019-02-09T12:25:31.649Z,12.43
2019-02-09T12:28:20.125Z,12.43
2019-02-09T12:31:09.031Z,12.57
2019-02-09T12:33:58.784Z,12.23
2019-02-09T12:36:47.937Z,11.72
2019-02-09T12:39:36.736Z,11.41
2019-02-09T12:42:25.461Z,11.31
2019-02-09T12:45:16.840Z,11.25
2019-02-09T12:48:07.327Z,11.41
2019-02-09T12:50:55.682Z,10.88
2019-02-09T12:53:44.631Z,11.25
2019-02-09T12:56:33.112Z,11.74
2019-02-09T12:59:22.144Z,11.68
2019-02-09T13:02:10.877Z,11.82
2019-02-09T13:04:59.547Z,11.52
2019-02-09T13:07:48.615Z,11.64
2019-02-09T13:10:36.895Z,11.53
2019-02-09T13:13:25.279Z,11.52
2019-02-09T13:16:13.976Z,11.58
2019-02-09T13:19:02.929Z,11.69
2019-02-09T13:21:51.688Z,11.08
2019-02-09T13:24:40.132Z,10.85
2019-02-09T13:27:29.003Z,10.89
2019-02-09T13:30:20.719Z,10.79
2019-02-09T13:33:08.893Z,10.70
2019-02-09T13:35:57.539Z,10.31
2019-02-09T13:38:46.133Z,10.12
2019-02-09T13:41:35.463Z,10.26
2019-02-09T13:44:24.506Z,10.28
2019-02-09T13:47:12.850Z,10.39
2019-02-09T13:50:01.785Z,10.63
2019-02-09T13:52:50.406Z,10.77
2019-02-09T13:55:38.697Z,10.72
2019-02-09T13:58:27.422Z,10.70
2019-02-09T14:01:16.505Z,10.66
2019-02-09T14:04:05.565Z,10.40
2019-02-09T14:06:54.052Z,10.06
2019-02-09T14:09:43.090Z,10.12
2019-02-09T14:12:32.019Z,10.00
2019-02-09T14:15:22.755Z,9.93
2019-02-09T14:18:11.751Z,9.97
2019-02-09T14:21:00.709Z,9.89
2019-02-09T14:23:50.063Z,9.81
2019-02-09T14:26:38.746Z,9.75
2019-02-09T14:29:29.571Z,9.66
2019-02-09T14:32:22.611Z,9.65
2019-02-09T14:35:13.899Z,9.66
2019-02-09T14:38:02.611Z,9.69
2019-02-09T14:40:51.708Z,9.64
2019-02-09T14:43:41.944Z,9.57
2019-02-09T14:46:30.844Z,9.66
2019-02-09T14:49:20.212Z,9.63
2019-02-09T14:52:13.836Z,9.51
2019-02-09T14:55:03.407Z,9.55
2019-02-09T14:57:52.666Z,9.57
2019-02-09T15:00:44.146Z,9.59
2019-02-09T15:03:33.332Z,9.43
2019-02-09T15:06:22.221Z,9.32
2019-02-09T15:09:11.710Z,9.42
2019-02-09T15:12:00.787Z,9.33
2019-02-09T15:14:49.649Z,9.23
2019-02-09T15:17:40.281Z,9.34
2019-02-09T15:20:32.124Z,9.24
2019-02-09T15:23:21.000Z,9.24
2019-02-09T15:26:09.637Z,9.23
2019-02-09T15:28:58.755Z,9.16
2019-02-09T15:31:47.434Z,9.18
2019-02-09T15:34:36.325Z,9.20
2019-02-09T15:37:25.236Z,9.17
2019-02-09T15:40:16.668Z,9.17
2019-02-09T15:43:05.358Z,9.14
2019-02-09T15:45:53.967Z,9.06
2019-02-09T15:48:42.917Z,9.06
2019-02-09T15:51:32.077Z,9.00
2019-02-09T15:54:21.034Z,8.92
2019-02-09T15:57:09.477Z,8.86
2019-02-09T15:59:59.811Z,8.79
2019-02-09T16:02:51.101Z,8.75
2019-02-09T16:05:40.076Z,8.76
2019-02-09T16:08:29.439Z,8.73
2019-02-09T16:11:20.361Z,8.74
2019-02-09T16:14:14.035Z,8.71
2019-02-09T16:17:03.328Z,8.71
2019-02-09T16:19:52.531Z,8.68
2019-02-09T16:22:41.918Z,8.61
2019-02-09T16:25:31.288Z,8.63
2019-02-09T16:28:23.329Z,8.58
2019-02-09T16:31:11.756Z,8.48
2019-02-09T16:34:00.183Z,8.45
2019-02-09T16:36:53.936Z,8.44
2019-02-09T16:39:42.407Z,8.36
2019-02-09T16:42:31.236Z,8.35
2019-02-09T16:45:31.311Z,8.27
2019-02-09T16:48:19.841Z,8.21
2019-02-09T16:51:09.200Z,8.21
2019-02-09T16:53:58.606Z,8.13
2019-02-09T16:56:47.966Z,8.11
2019-02-09T16:59:36.967Z,8.11
2019-02-09T17:02:26.045Z,8.03
2019-02-09T17:05:15.253Z,7.98
2019-02-09T17:08:04.896Z,7.97
2019-02-09T17:10:56.478Z,7.87
2019-02-09T17:13:46.137Z,7.92
2019-02-09T17:16:35.444Z,7.83
2019-02-09T17:19:27.891Z,7.72
2019-02-09T17:22:20.110Z,7.71
2019-02-09T17:25:10.324Z,7.69
2019-02-09T17:27:59.676Z,7.60
2019-02-09T17:30:48.536Z,7.57
2019-02-09T17:33:38.195Z,7.62
2019-02-09T17:36:27.437Z,7.60
2019-02-09T17:39:16.788Z,7.62
2019-02-09T17:42:06.466Z,7.63
2019-02-09T17:44:55.656Z,7.61
2019-02-09T17:47:44.464Z,7.66
2019-02-09T17:50:33.784Z,7.61
2019-02-09T17:53:22.193Z,7.61
2019-02-09T17:56:11.127Z,7.62
2019-02-09T17:59:00.440Z,7.59
2019-02-09T18:01:49.711Z,7.59
2019-02-09T18:04:38.259Z,7.53
2019-02-09T18:07:27.232Z,7.54
2019-02-09T18:10:16.685Z,7.56
2019-02-09T18:13:04.937Z,7.60
2019-02-09T18:15:53.693Z,7.59
2019-02-09T18:18:42.337Z,7.63
2019-02-09T18:21:31.265Z,7.59
2019-02-09T18:24:20.097Z,7.50
2019-02-09T18:27:08.302Z,7.53
2019-02-09T18:29:57.391Z,7.50
2019-02-09T18:32:46.046Z,7.54
2019-02-09T18:35:34.882Z,7.53
2019-02-09T18:38:23.099Z,7.53
2019-02-09T18:41:11.537Z,7.54
2019-02-09T18:44:00.360Z,7.52
2019-02-09T18:46:49.683Z,7.54
2019-02-09T18:49:38.588Z,7.56
2019-02-09T18:52:27.567Z,7.58
2019-02-09T18:55:23.965Z,7.61
2019-02-09T18:58:12.944Z,7.64
2019-02-09T19:01:01.595Z,7.61
2019-02-09T19:03:50.773Z,7.65
2019-02-09T19:06:39.758Z,7.67
2019-02-09T19:09:28.483Z,7.64
2019-02-09T19:12:17.325Z,7.68
2019-02-09T19:15:07.535Z,7.66
2019-02-09T19:17:56.135Z,7.68
2019-02-09T19:20:48.079Z,7.67
2019-02-09T19:23:36.931Z,7.68
2019-02-09T19:26:26.738Z,7.64
2019-02-09T19:29:15.090Z,7.64
2019-02-09T19:32:04.300Z,7.60
2019-02-09T19:34:53.310Z,7.59
2019-02-09T19:37:42.546Z,7.52
2019-02-09T19:40:31.089Z,7.49
2019-02-09T19:43:20.085Z,7.50
2019-02-09T19:46:09.740Z,7.47
2019-02-09T19:48:58.778Z,7.50
2019-02-09T19:51:47.605Z,7.49
2019-02-09T19:54:37.025Z,7.43
2019-02-09T19:57:25.866Z,7.40
2019-02-09T20:00:36.236Z,7.41
2019-02-09T20:03:24.948Z,7.38
2019-02-09T20:06:13.893Z,7.33
2019-02-09T20:09:04.461Z,7.39
2019-02-09T20:11:53.154Z,7.37
2019-02-09T20:14:42.078Z,7.39
2019-02-09T20:17:30.879Z,7.41
2019-02-09T20:20:20.445Z,7.45
2019-02-09T20:23:09.659Z,7.52
2019-02-09T20:25:58.953Z,7.52
2019-02-09T20:28:48.224Z,7.54
2019-02-09T20:31:37.262Z,7.53
2019-02-09T20:34:25.828Z,7.54
2019-02-09T20:37:14.487Z,7.56
2019-02-09T20:40:05.599Z,7.57
2019-02-09T20:43:01.499Z,7.55
2019-02-09T20:45:44.430Z,7.56
2019-02-09T20:48:34.496Z,7.60
2019-02-09T20:51:23.987Z,7.66
2019-02-09T20:54:13.181Z,7.65
2019-02-09T20:57:02.534Z,7.61
2019-02-09T20:59:51.637Z,7.59
2019-02-09T21:02:39.892Z,7.61
2019-02-09T21:05:36.005Z,7.68
2019-02-09T21:08:20.236Z,7.68
2019-02-09T21:11:09.518Z,7.71
2019-02-09T21:13:57.802Z,7.71
2019-02-09T21:16:51.816Z,7.71
2019-02-09T21:19:37.772Z,7.73
2019-02-09T21:22:26.871Z,7.76
2019-02-09T21:25:24.717Z,7.77
2019-02-09T21:28:13.273Z,7.80
2019-02-09T21:31:02.194Z,7.77
2019-02-09T21:33:51.089Z,7.75
2019-02-09T21:36:40.047Z,7.76
2019-02-09T21:39:33.747Z,7.74
2019-02-09T21:42:19.280Z,7.77
2019-02-09T21:45:09.057Z,7.77
2019-02-09T21:47:58.286Z,7.78
2019-02-09T21:50:47.319Z,7.80
2019-02-09T21:53:35.573Z,7.82
2019-02-09T21:56:25.802Z,7.80
2019-02-09T21:59:14.774Z,7.76
2019-02-09T22:02:03.640Z,7.77
2019-02-09T22:04:52.003Z,7.73
2019-02-09T22:07:40.648Z,7.78
2019-02-09T22:10:33.848Z,7.74
2019-02-09T22:13:20.370Z,7.77
2019-02-09T22:16:09.314Z,7.73
2019-02-09T22:18:58.198Z,7.72
2019-02-09T22:21:47.430Z,7.65
2019-02-09T22:24:36.548Z,7.66
2019-02-09T22:27:24.786Z,7.63
2019-02-09T22:30:16.200Z,7.57
2019-02-09T22:33:04.788Z,7.58
2019-02-09T22:35:59.803Z,7.54
2019-02-09T22:38:44.551Z,7.56
2019-02-09T22:41:33.697Z,7.52
2019-02-09T22:44:23.068Z,7.49
2019-02-09T22:47:11.644Z,7.54
2019-02-09T22:50:00.422Z,7.52
2019-02-09T22:52:49.216Z,7.54
2019-02-09T22:55:37.389Z,7.52
2019-02-09T22:58:26.228Z,7.45
2019-02-09T23:01:40.928Z,7.43
2019-02-09T23:04:47.533Z,7.42
2019-02-09T23:07:36.533Z,7.40
2019-02-09T23:10:25.125Z,7.40
2019-02-09T23:13:13.908Z,7.36
2019-02-09T23:16:02.951Z,7.32
2019-02-09T23:18:51.373Z,7.32
2019-02-09T23:21:40.508Z,7.30
2019-02-09T23:24:29.320Z,7.29
2019-02-09T23:27:18.093Z,7.22
2019-02-09T23:30:10.567Z,7.18
2019-02-09T23:32:59.494Z,7.18
2019-02-09T23:35:47.988Z,7.20
2019-02-09T23:38:36.518Z,7.18
2019-02-09T23:41:25.438Z,7.16
2019-02-09T23:44:14.237Z,7.17
2019-02-09T23:47:02.527Z,7.09
2019-02-09T23:49:51.241Z,7.11
2019-02-09T23:52:39.388Z,7.09
2019-02-09T23:55:28.195Z,7.05
2019-02-09T23:58:16.914Z,7.01
